Time;durP1;ratioP1;P1;durP2;ratioP2;P2;SDS_P1;SDS_P2;PMS_P1;PMS_P2;Temp;Humidity;BMP_temperature;BMP_pressure;BME280_temperature;BME280_humidity;BME280_pressure;Samples;Min_cycle;Max_cycle;Signal;HPM_P1;HPM_P2
2022/01/27 00:01:23;;;;;;;67.10;38.40;;;51.80;2227.20;;;;;;5055981;28;20063;-72
2022/01/27 00:04:02;;;;;;;71.57;40.40;;;51.90;2227.20;;;;;;5056495;28;20020;-68
2022/01/27 00:06:32;;;;;;;69.43;40.60;;;51.80;2227.20;;;;;;5055864;28;20021;-72
2022/01/27 00:09:07;;;;;;;66.00;39.93;;;51.90;2227.20;;;;;;5055710;28;20028;-68
2022/01/27 00:11:33;;;;;;;71.33;40.53;;;51.90;2227.20;;;;;;5055571;28;20074;-67
2022/01/27 00:14:01;;;;;;;67.97;40.77;;;51.90;2227.20;;;;;;5055252;28;20041;-73
2022/01/27 00:16:30;;;;;;;70.13;41.30;;;51.90;2227.20;;;;;;5055443;28;20060;-71
2022/01/27 00:18:57;;;;;;;71.40;41.13;;;51.90;2227.20;;;;;;5055076;28;20052;-73
2022/01/27 00:21:26;;;;;;;68.47;40.03;;;51.90;2227.20;;;;;;5055262;28;20107;-73
2022/01/27 00:23:53;;;;;;;70.87;40.97;;;51.90;2227.20;;;;;;5055213;28;20103;-67
2022/01/27 00:26:20;;;;;;;66.80;41.03;;;51.90;2227.20;;;;;;5055232;28;20474;-68
2022/01/27 00:28:47;;;;;;;71.17;41.10;;;51.90;2227.20;;;;;;5055108;28;20078;-73
2022/01/27 00:31:15;;;;;;;68.43;40.70;;;51.90;2227.20;;;;;;5055080;28;20095;-73
2022/01/27 00:33:42;;;;;;;69.57;41.30;;;51.90;2227.20;;;;;;5055022;28;20547;-69
2022/01/27 00:36:08;;;;;;;71.80;41.83;;;51.90;2227.20;;;;;;5055017;28;20462;-67
2022/01/27 00:38:34;;;;;;;68.17;40.50;;;52.00;2227.20;;;;;;5055048;28;20032;-74
2022/01/27 00:41:00;;;;;;;72.77;40.73;;;51.90;2227.20;;;;;;5054864;28;20032;-67
2022/01/27 00:43:26;;;;;;;73.00;41.07;;;51.90;2227.20;;;;;;5055188;28;20424;-73
2022/01/27 00:45:52;;;;;;;76.50;41.47;;;51.90;2227.20;;;;;;5055004;28;20061;-73
2022/01/27 00:48:18;;;;;;;62.67;39.10;;;51.90;2227.20;;;;;;5054752;28;20049;-68
2022/01/27 00:50:54;;;;;;;68.23;40.17;;;51.90;2227.20;;;;;;5067924;28;20381;-73
2022/01/27 00:59:23;;;;;;;65.03;39.20;;;51.80;2227.20;;;;;;5032718;28;20025;-68
2022/01/27 01:01:59;;;;;;;63.57;37.67;;;51.80;2227.20;;;;;;5032329;28;20030;-68
2022/01/27 01:04:31;;;;;;;64.57;37.27;;;51.80;2227.20;;;;;;5032603;28;20048;-67
2022/01/27 01:06:57;;;;;;;65.03;38.93;;;51.70;2227.20;;;;;;5016136;28;20390;-67
2022/01/27 01:33:11;;;;;;;64.00;37.83;;;51.80;2227.20;;;;;;5070988;28;20013;-74
2022/01/27 01:35:52;;;;;;;66.23;39.03;;;51.80;2227.20;;;;;;5073371;28;20469;-74
2022/01/27 01:38:21;;;;;;;66.50;39.50;;;51.70;2227.20;;;;;;5073596;28;20365;-72
2022/01/27 01:40:49;;;;;;;64.80;38.30;;;51.80;2227.20;;;;;;5073601;28;20037;-73
2022/01/27 01:43:17;;;;;;;61.77;38.03;;;51.80;2227.20;;;;;;5073841;28;20012;-73
2022/01/27 01:45:43;;;;;;;70.57;39.50;;;51.80;2227.20;;;;;;5073645;28;20032;-73
2022/01/27 01:48:09;;;;;;;62.77;37.20;;;51.80;2227.20;;;;;;5073556;28;20029;-68
2022/01/27 01:50:35;;;;;;;67.00;39.07;;;51.70;2227.20;;;;;;5073913;28;20025;-71
2022/01/27 01:53:03;;;;;;;68.80;39.43;;;51.80;2227.20;;;;;;5074100;28;20365;-72
2022/01/27 01:55:31;;;;;;;63.13;37.73;;;51.80;2227.20;;;;;;5073511;28;20032;-68
2022/01/27 01:57:57;;;;;;;67.30;39.67;;;51.80;2227.20;;;;;;5073542;28;20547;-73
2022/01/27 02:00:24;;;;;;;62.90;38.57;;;51.90;2227.20;;;;;;5073272;28;20032;-72
2022/01/27 02:02:50;;;;;;;61.50;37.80;;;51.90;2227.20;;;;;;5072168;28;20028;-73
2022/01/27 02:05:19;;;;;;;67.67;38.87;;;51.90;2227.20;;;;;;5073394;28;20028;-74
2022/01/27 02:09:06;;;;;;;60.70;37.27;;;51.90;2227.20;;;;;;5079625;28;20017;-77
2022/01/27 02:19:18;;;;;;;61.60;35.03;;;51.80;2227.20;;;;;;5073364;28;20123;-68
2022/01/27 02:21:45;;;;;;;58.17;34.20;;;51.80;2227.20;;;;;;5073324;28;20028;-69
2022/01/27 02:24:11;;;;;;;60.90;36.50;;;51.80;2227.20;;;;;;5073232;28;20238;-68
2022/01/27 02:26:37;;;;;;;56.00;34.17;;;51.80;2227.20;;;;;;5073310;28;20043;-69
2022/01/27 02:29:03;;;;;;;57.33;34.60;;;51.80;2227.20;;;;;;5073317;28;20358;-68
2022/01/27 02:31:29;;;;;;;55.87;34.33;;;51.80;2227.20;;;;;;5073543;28;20032;-68
2022/01/27 02:33:57;;;;;;;54.10;33.73;;;51.90;2227.20;;;;;;5073258;28;20422;-68
2022/01/27 02:36:23;;;;;;;61.97;35.87;;;51.90;2227.20;;;;;;5073241;28;20091;-69
2022/01/27 02:38:49;;;;;;;57.87;34.83;;;51.90;2227.20;;;;;;5073172;28;20028;-69
2022/01/27 02:41:16;;;;;;;60.80;34.67;;;51.90;2227.20;;;;;;5073066;28;20040;-68
2022/01/27 02:43:43;;;;;;;57.07;33.33;;;51.90;2227.20;;;;;;5076381;28;20054;-72
2022/01/27 02:46:15;;;;;;;58.37;33.90;;;51.90;2227.20;;;;;;5077163;28;20035;-68
2022/01/27 02:48:41;;;;;;;56.43;34.23;;;51.90;2227.20;;;;;;5077294;28;20432;-69
2022/01/27 02:51:07;;;;;;;59.50;35.53;;;51.90;2227.20;;;;;;5077073;28;20070;-73
2022/01/27 02:53:33;;;;;;;57.90;34.07;;;51.90;2227.20;;;;;;5077281;28;20389;-68
2022/01/27 02:55:59;;;;;;;56.43;33.87;;;51.90;2227.20;;;;;;5077454;28;20028;-68
2022/01/27 02:58:24;;;;;;;55.93;33.77;;;52.00;2227.20;;;;;;5076891;28;20028;-68
2022/01/27 03:00:50;;;;;;;62.63;35.50;;;51.90;2227.20;;;;;;5077094;28;20496;-68
2022/01/27 03:03:16;;;;;;;58.00;35.40;;;52.00;2227.20;;;;;;5076835;28;20024;-68
2022/01/27 03:05:42;;;;;;;62.80;36.57;;;51.90;2227.20;;;;;;5076735;28;20024;-68
2022/01/27 03:08:08;;;;;;;60.30;35.73;;;52.00;2227.20;;;;;;5076748;28;20519;-68
2022/01/27 03:10:39;;;;;;;61.07;35.93;;;52.00;2227.20;;;;;;5076624;28;20029;-68
2022/01/27 03:13:05;;;;;;;60.43;36.07;;;52.00;2227.20;;;;;;5076648;28;20032;-68
2022/01/27 03:15:31;;;;;;;55.23;33.73;;;52.00;2227.20;;;;;;5076420;28;20481;-68
2022/01/27 03:17:57;;;;;;;56.63;34.20;;;52.00;2227.20;;;;;;5076572;28;20034;-68
2022/01/27 03:20:31;;;;;;;56.17;34.13;;;52.00;2227.20;;;;;;5076383;28;20432;-74
2022/01/27 03:22:57;;;;;;;56.30;33.13;;;52.10;2227.20;;;;;;5076770;28;20032;-68
2022/01/27 03:25:23;;;;;;;57.07;33.20;;;52.10;2227.20;;;;;;5076361;28;20487;-68
2022/01/27 03:27:49;;;;;;;54.37;32.13;;;52.00;2227.20;;;;;;5076479;28;20024;-68
2022/01/27 03:30:17;;;;;;;52.90;32.40;;;52.00;2227.20;;;;;;5076255;28;20120;-68
2022/01/27 03:32:43;;;;;;;57.50;33.13;;;52.00;2227.20;;;;;;5076279;28;20039;-69
2022/01/27 03:35:09;;;;;;;59.83;34.37;;;52.00;2227.20;;;;;;5076099;28;20056;-69
2022/01/27 03:37:35;;;;;;;52.17;33.20;;;52.00;2227.20;;;;;;5076370;28;20108;-68
2022/01/27 03:40:04;;;;;;;54.50;32.20;;;52.00;2227.20;;;;;;5076062;28;20520;-73
2022/01/27 03:42:30;;;;;;;52.57;32.27;;;52.00;2227.20;;;;;;5075994;28;20032;-68
2022/01/27 03:44:56;;;;;;;52.90;31.30;;;52.00;2227.20;;;;;;5076104;28;20533;-68
2022/01/27 03:47:22;;;;;;;56.97;33.17;;;52.00;2227.20;;;;;;5076320;28;20025;-73
2022/01/27 03:49:48;;;;;;;53.67;32.63;;;52.10;2227.20;;;;;;5075974;28;20479;-68
2022/01/27 03:52:13;;;;;;;57.10;33.33;;;52.00;2227.20;;;;;;5075951;28;20028;-68
2022/01/27 03:54:39;;;;;;;58.57;33.33;;;52.00;2227.20;;;;;;5075175;28;20082;-69
2022/01/27 03:57:05;;;;;;;56.70;32.83;;;52.00;2227.20;;;;;;5075851;28;20060;-73
2022/01/27 03:59:31;;;;;;;52.93;32.50;;;52.00;2227.20;;;;;;5076019;28;20146;-68
2022/01/27 04:01:58;;;;;;;55.17;31.00;;;52.00;2227.20;;;;;;5075843;28;20099;-68
2022/01/27 04:04:25;;;;;;;55.00;32.93;;;52.00;2227.20;;;;;;5076025;28;20529;-68
2022/01/27 04:06:52;;;;;;;57.47;32.90;;;52.00;2227.20;;;;;;5075696;28;20017;-73
2022/01/27 04:09:19;;;;;;;57.67;33.47;;;51.90;2227.20;;;;;;5075603;28;20016;-69
2022/01/27 04:11:45;;;;;;;62.27;34.77;;;52.00;2227.20;;;;;;5075537;28;20480;-68
2022/01/27 04:14:10;;;;;;;60.20;34.63;;;52.00;2227.20;;;;;;5075480;28;20067;-68
2022/01/27 04:16:37;;;;;;;61.10;34.57;;;52.00;2227.20;;;;;;5075834;28;20521;-70
2022/01/27 04:19:03;;;;;;;59.97;35.60;;;52.00;2227.20;;;;;;5075375;28;20120;-68
2022/01/27 04:21:30;;;;;;;64.60;35.43;;;52.00;2227.20;;;;;;5075310;28;20086;-69
2022/01/27 04:23:56;;;;;;;61.00;34.07;;;52.00;2227.20;;;;;;5075357;28;20021;-68
2022/01/27 04:26:31;;;;;;;63.20;37.00;;;52.00;2227.20;;;;;;5075264;28;20063;-68
2022/01/27 04:28:56;;;;;;;63.27;36.60;;;52.00;2227.20;;;;;;5075571;28;20522;-68
2022/01/27 04:31:25;;;;;;;62.03;35.07;;;51.90;2227.20;;;;;;5075119;28;20029;-68
2022/01/27 04:33:51;;;;;;;66.80;37.07;;;51.90;2227.20;;;;;;5075440;28;20049;-69
2022/01/27 04:36:27;;;;;;;70.73;41.37;;;51.90;2227.20;;;;;;5075382;28;20033;-69
2022/01/27 04:44:03;;;;;;;80.67;48.03;;;51.90;2227.20;;;;;;5074963;28;20020;-68
2022/01/27 04:49:02;;;;;;;78.17;44.90;;;51.90;2227.20;;;;;;5075114;28;20052;-68
2022/01/27 04:51:28;;;;;;;73.40;42.27;;;51.90;2227.20;;;;;;5075064;28;20111;-69
2022/01/27 04:54:46;;;;;;;73.50;40.37;;;51.90;2227.20;;;;;;5074620;28;20028;-69
2022/01/27 04:56:43;;;;;;;75.07;42.13;;;51.90;2227.20;;;;;;5069012;28;20497;-73
2022/01/27 04:59:18;;;;;;;84.67;44.63;;;51.80;2227.20;;;;;;5074652;28;20511;-73
2022/01/27 05:02:10;;;;;;;85.23;47.33;;;51.80;2227.20;;;;;;5074566;28;20043;-73
2022/01/27 05:04:34;;;;;;;87.50;45.60;;;51.80;2227.20;;;;;;5074005;28;20469;-68
2022/01/27 05:07:00;;;;;;;68.97;41.07;;;51.90;2227.20;;;;;;5073510;28;20028;-68
2022/01/27 05:09:26;;;;;;;68.20;39.50;;;51.90;2227.20;;;;;;5074735;28;20389;-68
2022/01/27 05:12:05;;;;;;;65.33;38.27;;;51.80;2227.20;;;;;;5073104;28;20028;-68
2022/01/27 05:14:31;;;;;;;71.00;38.27;;;51.90;2227.20;;;;;;5074334;28;20048;-68
2022/01/27 05:16:57;;;;;;;67.97;37.60;;;51.90;2227.20;;;;;;5074838;28;20029;-70
2022/01/27 05:19:23;;;;;;;63.53;38.07;;;51.80;2227.20;;;;;;5074229;28;20020;-68
2022/01/27 05:21:49;;;;;;;64.47;37.23;;;51.90;2227.20;;;;;;5074772;28;20086;-68
2022/01/27 05:24:16;;;;;;;72.90;41.73;;;51.90;2227.20;;;;;;5074169;28;20421;-68
2022/01/27 05:26:42;;;;;;;90.63;51.90;;;51.90;2227.20;;;;;;5074305;28;20020;-68
2022/01/27 05:29:11;;;;;;;92.83;52.73;;;51.80;2227.20;;;;;;5073985;28;20506;-68
2022/01/27 05:31:38;;;;;;;88.07;49.17;;;51.90;2227.20;;;;;;5074149;28;20082;-69
2022/01/27 05:34:07;;;;;;;87.73;46.63;;;51.90;2227.20;;;;;;5073866;28;20025;-68
2022/01/27 05:36:36;;;;;;;87.70;47.20;;;51.90;2227.20;;;;;;5073806;28;20028;-68
2022/01/27 05:39:03;;;;;;;89.73;46.50;;;51.90;2227.20;;;;;;5073709;28;20024;-68
2022/01/27 05:41:29;;;;;;;104.73;52.17;;;51.90;2227.20;;;;;;5074399;28;20043;-68
2022/01/27 05:43:55;;;;;;;100.47;49.33;;;51.90;2227.20;;;;;;5073634;28;20017;-69
2022/01/27 05:46:21;;;;;;;96.97;49.57;;;51.80;2227.20;;;;;;5073705;28;20092;-68
2022/01/27 05:48:47;;;;;;;93.63;50.37;;;51.80;2227.20;;;;;;5073607;28;20021;-69
2022/01/27 05:51:13;;;;;;;93.60;49.30;;;51.80;2227.20;;;;;;5073666;28;20028;-69
2022/01/27 05:53:39;;;;;;;90.40;49.80;;;51.80;2227.20;;;;;;5073787;28;20047;-68
2022/01/27 05:56:05;;;;;;;80.90;45.23;;;51.80;2227.20;;;;;;5073607;28;20103;-68
2022/01/27 05:58:31;;;;;;;75.80;42.27;;;51.90;2227.20;;;;;;5073842;28;20154;-68
2022/01/27 06:00:57;;;;;;;69.30;40.13;;;51.80;2227.20;;;;;;5073418;28;20119;-70
2022/01/27 06:03:23;;;;;;;70.37;39.93;;;51.80;2227.20;;;;;;5073510;28;20066;-68
2022/01/27 06:05:49;;;;;;;73.13;42.57;;;51.80;2227.20;;;;;;5073472;28;20492;-68
2022/01/27 06:08:15;;;;;;;83.07;45.37;;;51.90;2227.20;;;;;;5073451;28;20017;-68
2022/01/27 06:10:41;;;;;;;82.33;45.43;;;51.90;2227.20;;;;;;5073557;28;20028;-68
2022/01/27 06:13:06;;;;;;;77.93;44.50;;;51.90;2227.20;;;;;;5073957;28;20020;-68
2022/01/27 06:15:32;;;;;;;81.80;45.40;;;51.80;2227.20;;;;;;5073257;28;20139;-68
2022/01/27 06:17:59;;;;;;;72.87;42.30;;;51.80;2227.20;;;;;;5072999;28;20028;-68
2022/01/27 06:20:28;;;;;;;73.87;42.47;;;51.80;2227.20;;;;;;5073291;28;20124;-68
2022/01/27 06:22:58;;;;;;;73.80;42.13;;;51.80;2227.20;;;;;;5073362;28;20052;-68
2022/01/27 06:25:26;;;;;;;79.43;44.70;;;51.80;2227.20;;;;;;5073904;28;20024;-68
2022/01/27 06:27:52;;;;;;;78.03;45.33;;;51.90;2227.20;;;;;;5073304;28;20060;-73
2022/01/27 06:30:18;;;;;;;77.10;47.07;;;51.90;2227.20;;;;;;5073401;28;20082;-68
2022/01/27 06:32:43;;;;;;;82.30;46.73;;;51.90;2227.20;;;;;;5073276;28;20020;-68
2022/01/27 06:35:10;;;;;;;87.37;50.43;;;51.90;2227.20;;;;;;5073200;28;20435;-68
2022/01/27 06:37:37;;;;;;;74.87;44.63;;;51.90;2227.20;;;;;;5073259;28;20096;-68
2022/01/27 06:40:04;;;;;;;71.90;41.23;;;51.90;2227.20;;;;;;5073038;28;20021;-68
2022/01/27 06:42:30;;;;;;;69.57;42.33;;;51.90;2227.20;;;;;;5072903;28;20039;-68
2022/01/27 06:44:56;;;;;;;75.73;42.80;;;51.90;2227.20;;;;;;5073168;28;20443;-68
2022/01/27 06:47:22;;;;;;;72.50;40.90;;;51.90;2227.20;;;;;;5073023;28;20137;-68
2022/01/27 06:49:48;;;;;;;71.50;42.20;;;51.90;2227.20;;;;;;5073101;28;20071;-68
2022/01/27 06:52:14;;;;;;;81.03;44.70;;;51.90;2227.20;;;;;;5072977;28;20050;-69
2022/01/27 06:54:40;;;;;;;78.53;44.43;;;51.80;2227.20;;;;;;5073143;28;20074;-68
2022/01/27 06:57:06;;;;;;;84.13;47.87;;;51.90;2227.20;;;;;;5073283;28;20495;-68
2022/01/27 06:59:33;;;;;;;87.57;51.33;;;51.90;2227.20;;;;;;5072868;28;20067;-68
2022/01/27 07:01:59;;;;;;;101.87;55.57;;;51.90;2227.20;;;;;;5072784;28;20047;-80
2022/01/27 07:04:25;;;;;;;96.77;54.13;;;52.00;2227.20;;;;;;5072685;28;20104;-68
2022/01/27 07:06:52;;;;;;;97.17;56.17;;;52.00;2227.20;;;;;;5072927;28;20043;-68
2022/01/27 07:09:19;;;;;;;96.73;54.47;;;52.10;2227.20;;;;;;5072817;28;20028;-68
2022/01/27 07:11:44;;;;;;;89.47;50.27;;;52.10;2227.20;;;;;;5072899;28;20021;-68
2022/01/27 07:14:11;;;;;;;90.87;50.40;;;52.10;2227.20;;;;;;5072837;28;20048;-68
2022/01/27 07:16:38;;;;;;;82.90;48.23;;;76.80;2227.20;;;;;;5072842;28;20028;-71
2022/01/27 07:19:04;;;;;;;88.53;48.20;;;76.80;2227.20;;;;;;5072753;28;20078;-68
2022/01/27 07:21:30;;;;;;;88.27;49.43;;;76.80;2227.20;;;;;;5072768;28;20086;-68
2022/01/27 07:23:56;;;;;;;81.80;47.60;;;76.80;2227.20;;;;;;5072750;28;20024;-68
2022/01/27 07:26:25;;;;;;;77.03;44.13;;;76.80;2227.20;;;;;;5072720;28;20435;-68
2022/01/27 07:28:55;;;;;;;77.50;46.37;;;76.90;2227.20;;;;;;5072600;28;20096;-68
2022/01/27 07:31:22;;;;;;;77.13;44.20;;;76.90;2227.20;;;;;;5076305;28;20404;-68
2022/01/27 07:33:48;;;;;;;77.30;45.67;;;77.00;2227.20;;;;;;5076168;28;20438;-68
2022/01/27 07:36:20;;;;;;;72.80;47.30;;;77.00;2227.20;;;;;;5074952;28;20037;-68
2022/01/27 07:38:48;;;;;;;71.10;42.80;;;77.00;2227.20;;;;;;5076460;28;20025;-68
2022/01/27 07:41:15;;;;;;;74.10;43.47;;;77.10;2227.20;;;;;;5076135;28;20412;-73
2022/01/27 07:43:41;;;;;;;73.40;43.47;;;77.20;2227.20;;;;;;5075639;28;20100;-74
2022/01/27 07:46:07;;;;;;;79.53;46.00;;;77.20;2227.20;;;;;;5075375;28;20096;-74
2022/01/27 07:48:33;;;;;;;95.70;50.97;;;77.20;2227.20;;;;;;5075390;28;20380;-73
2022/01/27 07:51:02;;;;;;;98.93;52.90;;;77.30;2227.20;;;;;;5075279;28;20020;-70
2022/01/27 07:53:28;;;;;;;100.03;59.23;;;77.20;2227.20;;;;;;5075436;28;20377;-69
2022/01/27 07:55:54;;;;;;;98.67;56.67;;;77.30;2227.20;;;;;;5075844;28;20035;-72
2022/01/27 07:58:20;;;;;;;84.00;50.43;;;77.30;2227.20;;;;;;5075122;28;20032;-74
2022/01/27 08:00:47;;;;;;;90.87;52.57;;;77.40;2227.20;;;;;;5075239;28;20049;-68
2022/01/27 08:03:13;;;;;;;92.10;51.87;;;77.40;2227.20;;;;;;5074999;28;20486;-68
2022/01/27 08:05:39;;;;;;;99.87;51.03;;;77.50;2227.20;;;;;;5074947;28;20408;-76
2022/01/27 08:08:06;;;;;;;107.50;63.27;;;77.50;2227.20;;;;;;5074660;28;20121;-71
2022/01/27 08:10:38;;;;;;;76.33;43.83;;;77.50;2227.20;;;;;;5075311;28;20028;-69
2022/01/27 08:13:09;;;;;;;79.63;43.83;;;77.40;2227.20;;;;;;5075046;28;20074;-64
2022/01/27 08:15:35;;;;;;;79.90;45.10;;;77.50;2227.20;;;;;;5075012;28;20059;-65
2022/01/27 08:18:02;;;;;;;65.77;38.47;;;77.50;2227.20;;;;;;5074737;28;20059;-73
2022/01/27 08:20:30;;;;;;;77.20;43.17;;;77.50;2227.20;;;;;;5074401;28;20047;-70
2022/01/27 08:22:56;;;;;;;69.60;41.77;;;77.50;2227.20;;;;;;5074230;28;20103;-69
2022/01/27 08:25:23;;;;;;;68.70;40.57;;;77.50;2227.20;;;;;;5074471;28;20441;-66
2022/01/27 08:27:55;;;;;;;72.43;42.73;;;77.50;2227.20;;;;;;5074836;28;20024;-67
2022/01/27 08:30:24;;;;;;;81.13;44.17;;;77.50;2227.20;;;;;;5074899;28;20033;-68
2022/01/27 08:32:58;;;;;;;88.10;51.37;;;77.70;2227.20;;;;;;5071586;28;20009;-67
2022/01/27 08:35:25;;;;;;;89.57;47.75;;;77.70;2227.20;;;;;;5073645;28;20366;-69
2022/01/27 08:37:52;;;;;;;90.67;49.73;;;77.60;2227.20;;;;;;5073292;28;20063;-67
2022/01/27 08:40:18;;;;;;;93.57;51.60;;;102.40;2227.20;;;;;;5073798;28;20134;-67
2022/01/27 08:42:45;;;;;;;90.70;48.23;;;102.80;2227.20;;;;;;5074294;28;20393;-73
2022/01/27 08:45:16;;;;;;;76.43;44.43;;;103.00;2227.20;;;;;;5073445;28;20017;-67
2022/01/27 08:47:43;;;;;;;67.87;39.30;;;103.10;2227.20;;;;;;5074138;28;20105;-73
2022/01/27 08:50:11;;;;;;;69.67;40.93;;;103.30;2227.20;;;;;;5074035;28;20062;-69
2022/01/27 08:52:37;;;;;;;76.37;44.53;;;128.00;2252.80;;;;;;5073761;28;20461;-68
2022/01/27 08:55:06;;;;;;;71.73;42.13;;;128.10;2252.80;;;;;;5073743;28;20029;-70
2022/01/27 08:57:32;;;;;;;77.37;46.63;;;128.40;2252.80;;;;;;5074722;28;20025;-69
2022/01/27 08:59:59;;;;;;;92.50;51.87;;;128.50;2252.80;;;;;;5074034;28;20048;-74
2022/01/27 09:02:25;;;;;;;78.20;45.03;;;128.60;2252.80;;;;;;5074259;28;20099;-72
2022/01/27 09:04:52;;;;;;;76.37;44.40;;;128.90;2252.80;;;;;;5073292;28;20540;-74
2022/01/27 09:07:17;;;;;;;65.67;39.90;;;153.70;2252.80;;;;;;5073702;28;20051;-72
2022/01/27 09:09:44;;;;;;;55.43;33.73;;;153.80;2252.80;;;;;;5073846;28;20477;-68
2022/01/27 09:12:11;;;;;;;52.75;34.25;;;153.80;2252.80;;;;;;5073405;28;20024;-73
2022/01/27 09:14:40;;;;;;;51.95;32.03;;;153.80;2252.80;;;;;;5073611;28;20060;-70
2022/01/27 09:17:06;;;;;;;55.00;36.67;;;153.90;2252.80;;;;;;5073551;28;20059;-71
2022/01/27 09:19:37;;;;;;;46.25;29.17;;;154.10;2252.80;;;;;;5073492;28;20037;-64
2022/01/27 09:22:08;;;;;;;49.03;29.67;;;179.60;2252.80;;;;;;5073758;28;20112;-71
2022/01/27 09:24:40;;;;;;;41.25;24.92;;;205.20;2099.20;;;;;;5072697;28;20032;-71
2022/01/27 09:27:07;;;;;;;38.78;24.23;;;205.40;2048.00;;;;;;5074008;28;20098;-62
2022/01/27 09:29:33;;;;;;;66.60;34.00;;;205.00;2048.00;;;;;;5073968;28;20025;-70
2022/01/27 09:32:01;;;;;;;36.92;23.10;;;179.90;2124.80;;;;;;5072873;28;20454;-64
2022/01/27 09:34:27;;;;;;;41.70;26.05;;;179.50;2176.00;;;;;;5073524;28;20112;-64
2022/01/27 09:36:54;;;;;;;84.18;60.28;;;179.30;2252.80;;;;;;5072036;28;20422;-63
2022/01/27 09:39:22;;;;;;;41.00;24.95;;;205.30;2124.80;;;;;;5072688;28;20473;-64
2022/01/27 09:41:52;;;;;;;45.72;28.05;;;231.30;1817.60;;;;;;5073279;28;20508;-68
2022/01/27 09:44:20;;;;;;;47.10;27.50;;;256.10;1740.80;;;;;;5073350;28;20119;-65
2022/01/27 09:46:47;;;;;;;38.85;23.63;;;307.20;1638.40;;;;;;5073186;28;20029;-69
2022/01/27 09:49:16;;;;;;;35.97;21.25;;;282.40;1536.00;;;;;;5073198;28;20008;-73
2022/01/27 09:51:45;;;;;;;37.45;23.50;;;256.60;1612.80;;;;;;5073326;28;20385;-69
2022/01/27 09:54:13;;;;;;;30.92;20.02;;;281.60;1612.80;;;;;;5073411;28;20012;-63
2022/01/27 09:56:40;;;;;;;40.03;26.95;;;256.50;1587.20;;;;;;5073099;28;20050;-63
2022/01/27 09:59:08;;;;;;;30.73;20.08;;;256.10;1612.80;;;;;;5071929;28;20017;-64
2022/01/27 10:01:35;;;;;;;37.67;26.88;;;256.10;1664.00;;;;;;5079942;28;20503;-65
2022/01/27 10:04:06;;;;;;;43.67;30.90;;;256.30;1638.40;;;;;;5073056;28;20016;-67
2022/01/27 10:06:35;;;;;;;58.50;34.58;;;256.90;1561.60;;;;;;5073063;28;20058;-70
2022/01/27 10:09:26;;;;;;;49.55;30.70;;;281.90;1536.00;;;;;;5070229;28;20047;-67
2022/01/27 10:11:51;;;;;;;57.20;39.05;;;256.90;1536.00;;;;;;5071844;28;20032;-72
2022/01/27 10:14:23;;;;;;;68.38;39.30;;;282.30;1510.40;;;;;;5072382;28;20056;-72
2022/01/27 10:16:53;;;;;;;50.05;32.80;;;358.90;1331.20;;;;;;5072769;28;20020;-72
2022/01/27 10:19:20;;;;;;;60.05;39.95;;;333.40;1356.80;;;;;;5072707;28;20031;-72
2022/01/27 10:21:47;;;;;;;40.45;24.38;;;307.50;1459.20;;;;;;5072653;28;20089;-72
2022/01/27 10:24:20;;;;;;;25.58;17.60;;;409.60;1228.80;;;;;;5072393;28;20474;-74
2022/01/27 10:27:15;;;;;;;21.37;15.10;;;410.40;1126.40;;;;;;5072295;28;20128;-73
2022/01/27 10:30:00;;;;;;;24.17;16.00;;;461.00;1075.20;;;;;;5072471;28;20020;-73
2022/01/27 10:32:41;;;;;;;23.73;16.05;;;384.80;1152.00;;;;;;5070471;28;20087;-73
2022/01/27 10:35:09;;;;;;;24.20;15.40;;;384.20;1203.20;;;;;;5052626;28;20017;-73
2022/01/27 10:37:53;;;;;;;21.83;14.63;;;358.80;1280.00;;;;;;5052674;28;20021;-73
2022/01/27 10:40:32;;;;;;;20.15;14.52;;;333.30;1331.20;;;;;;5064126;28;20036;-64
2022/01/27 10:42:58;;;;;;;22.42;14.20;;;332.80;1382.40;;;;;;5071636;28;20059;-65
2022/01/27 10:45:24;;;;;;;23.73;14.57;;;307.50;1408.00;;;;;;5070715;28;20044;-65
2022/01/27 10:47:50;;;;;;;30.75;16.70;;;307.70;1408.00;;;;;;5072163;28;20024;-73
2022/01/27 10:50:16;;;;;;;23.15;15.02;;;333.00;1356.80;;;;;;5072370;28;20055;-72
2022/01/27 10:52:51;;;;;;;26.58;16.60;;;358.60;1280.00;;;;;;5071767;28;20025;-72
2022/01/27 10:55:20;;;;;;;21.05;13.48;;;359.10;1228.80;;;;;;5072170;28;20040;-73
2022/01/27 10:57:50;;;;;;;20.80;13.90;;;358.90;1228.80;;;;;;5072183;28;20024;-72
2022/01/27 11:00:21;;;;;;;25.33;16.30;;;333.70;1280.00;;;;;;5072629;28;20044;-73
2022/01/27 11:02:50;;;;;;;26.35;17.40;;;333.30;1331.20;;;;;;5072672;28;20058;-73
2022/01/27 11:05:23;;;;;;;30.45;17.92;;;282.00;1433.60;;;;;;5074439;28;20046;-73
2022/01/27 11:07:50;;;;;;;27.58;18.77;;;332.80;1382.40;;;;;;5076565;28;20380;-72
2022/01/27 11:10:17;;;;;;;32.28;19.23;;;307.70;1382.40;;;;;;5081067;28;20020;-67
2022/01/27 11:12:44;;;;;;;29.17;16.85;;;281.80;1459.20;;;;;;5081934;28;20030;-73
2022/01/27 11:15:17;;;;;;;32.90;18.50;;;256.50;1510.40;;;;;;5084652;28;20040;-72
2022/01/27 11:17:45;;;;;;;21.67;14.75;;;256.10;1561.60;;;;;;5082096;28;20538;-69
2022/01/27 11:23:10;;;;;;;20.23;13.98;;;230.60;1638.40;;;;;;5081601;28;20028;-72
2022/01/27 11:28:05;;;;;;;28.45;16.02;;;230.40;1664.00;;;;;;5081680;28;20025;-72
2022/01/27 11:30:58;;;;;;;33.80;19.65;;;230.50;1689.60;;;;;;5084630;28;20047;-74
2022/01/27 11:33:34;;;;;;;33.83;18.08;;;230.60;1689.60;;;;;;5019464;28;20125;-70
2022/01/27 11:36:15;;;;;;;24.63;15.32;;;230.70;1689.60;;;;;;5016399;28;20044;-76
2022/01/27 11:38:45;;;;;;;27.60;16.52;;;230.90;1664.00;;;;;;5017689;28;20278;-77
2022/01/27 11:41:43;;;;;;;29.33;16.10;;;230.90;1689.60;;;;;;5022248;28;20052;-76
2022/01/27 11:44:37;;;;;;;30.35;17.33;;;230.90;1664.00;;;;;;5021968;28;20042;-76
2022/01/27 11:47:13;;;;;;;27.13;17.65;;;230.80;1689.60;;;;;;5011957;28;20391;-76
2022/01/27 11:50:11;;;;;;;24.67;15.23;;;230.80;1689.60;;;;;;5012513;28;20037;-68
2022/01/27 11:52:52;;;;;;;32.92;16.75;;;230.60;1689.60;;;;;;5005554;28;20053;-76
2022/01/27 11:55:23;;;;;;;29.88;15.32;;;230.60;1689.60;;;;;;5011762;28;20037;-67
2022/01/27 11:57:51;;;;;;;29.50;16.35;;;230.50;1715.20;;;;;;5012154;28;20061;-74
2022/01/27 12:00:19;;;;;;;30.52;17.30;;;230.50;1715.20;;;;;;5012140;28;20469;-76
2022/01/27 12:02:57;;;;;;;31.65;19.30;;;230.50;1715.20;;;;;;5012624;28;20033;-73
2022/01/27 12:05:27;;;;;;;25.48;15.52;;;230.50;1689.60;;;;;;5013293;28;20030;-76
2022/01/27 12:08:19;;;;;;;22.45;13.88;;;230.40;1740.80;;;;;;5013634;28;20038;-74
2022/01/27 12:10:53;;;;;;;26.92;16.60;;;205.60;1740.80;;;;;;5058953;28;20060;-75
2022/01/27 12:13:25;;;;;;;30.52;16.25;;;256.20;1587.20;;;;;;5075730;28;20017;-66
2022/01/27 12:19:14;;;;;;;44.75;23.45;;;307.60;1459.20;;;;;;5095518;28;20012;-74
2022/01/27 12:21:51;;;;;;;29.67;16.75;;;281.80;1510.40;;;;;;5081339;28;20032;-74
2022/01/27 12:24:24;;;;;;;27.05;17.15;;;282.30;1459.20;;;;;;5095313;28;20422;-75
2022/01/27 12:26:51;;;;;;;57.63;27.40;;;358.40;1356.80;;;;;;5095170;28;20024;-68
2022/01/27 12:29:42;;;;;;;44.60;21.48;;;358.60;1305.60;;;;;;5095392;28;20051;-75
2022/01/27 12:32:30;;;;;;;39.85;21.88;;;333.30;1382.40;;;;;;5087876;28;20078;-75
2022/01/27 12:35:10;;;;;;;46.53;26.67;;;307.80;1433.60;;;;;;5095358;28;20020;-75
2022/01/27 12:37:47;;;;;;;132.73;70.80;;;307.70;1433.60;;;;;;5094990;28;20029;-75
2022/01/27 12:40:28;;;;;;;65.68;36.17;;;358.40;1331.20;;;;;;5095084;28;20034;-75
2022/01/27 12:43:01;;;;;;;71.72;38.22;;;358.90;1331.20;;;;;;5095137;28;20036;-73
2022/01/27 12:45:30;;;;;;;131.90;64.20;;;410.50;1152.00;;;;;;5094802;28;20059;-76
2022/01/27 12:47:59;;;;;;;40.88;23.35;;;486.40;1024.00;;;;;;5094940;28;20310;-76
2022/01/27 12:50:25;;;;;;;79.68;45.40;;;410.30;1152.00;;;;;;5067551;28;20066;-69
2022/01/27 12:52:57;;;;;;;51.28;28.02;;;460.90;1100.80;;;;;;5054503;28;20044;-76
2022/01/27 12:55:33;;;;;;;87.82;49.42;;;435.80;1075.20;;;;;;5054539;28;20102;-73
2022/01/27 12:58:01;;;;;;;55.85;32.00;;;487.10;972.80;;;;;;5054309;28;20013;-69
2022/01/27 13:00:28;;;;;;;53.25;32.47;;;563.50;870.40;;;;;;5054169;28;20033;-75
2022/01/27 13:03:01;;;;;;;46.90;27.88;;;563.70;921.60;;;;;;5054265;28;20016;-71
2022/01/27 13:05:35;;;;;;;54.93;32.70;;;563.60;870.40;;;;;;5054127;28;20021;-76
2022/01/27 13:08:12;;;;;;;32.88;22.55;;;512.90;896.00;;;;;;5054285;28;20661;-74
2022/01/27 13:10:44;;;;;;;46.60;29.52;;;537.70;921.60;;;;;;5068715;28;20028;-74